createdAt,value
2018-06-15T00:00:33.241Z,95125.30
2018-06-15T00:03:37.628Z,95123.61
2018-06-15T00:06:41.929Z,95124.50
2018-06-15T00:09:46.398Z,95126.69
2018-06-15T00:12:50.694Z,95126.41
2018-06-15T00:15:55.191Z,95122.97
2018-06-15T00:18:59.484Z,95119.00
2018-06-15T00:22:03.886Z,95118.61
2018-06-15T00:25:08.216Z,95121.28
2018-06-15T00:28:12.863Z,95117.66
2018-06-15T00:31:17.332Z,95123.91
2018-06-15T00:34:21.599Z,95123.70
2018-06-15T00:37:27.133Z,95118.46
2018-06-15T00:40:32.175Z,95122.27
2018-06-15T00:43:36.554Z,95125.59
2018-06-15T00:46:41.181Z,95123.52
2018-06-15T00:49:45.506Z,95115.55
2018-06-15T00:52:49.664Z,95113.13
2018-06-15T00:55:54.561Z,95123.62
2018-06-15T00:58:58.926Z,95124.07
2018-06-15T01:02:03.239Z,95117.89
2018-06-15T01:05:07.864Z,95114.33
2018-06-15T01:08:12.141Z,95110.73
2018-06-15T01:11:16.495Z,95111.87
2018-06-15T01:14:20.833Z,95111.16
2018-06-15T01:17:25.177Z,95109.15
2018-06-15T01:20:29.636Z,95111.42
2018-06-15T01:23:34.033Z,95110.54
2018-06-15T01:27:02.177Z,95105.54
2018-06-15T01:30:07.802Z,95104.00
2018-06-15T01:33:12.319Z,95103.01
2018-06-15T01:36:16.677Z,95099.23
2018-06-15T01:39:21.693Z,95103.55
2018-06-15T01:42:26.005Z,95095.67
2018-06-15T01:45:30.488Z,95097.45
2018-06-15T01:48:35.947Z,95089.56
2018-06-15T01:51:40.258Z,95087.47
2018-06-15T01:54:44.558Z,95092.02
2018-06-15T01:57:48.943Z,95094.34
2018-06-15T02:00:53.429Z,95093.12
2018-06-15T02:03:57.777Z,95090.26
2018-06-15T02:07:02.162Z,95100.23
2018-06-15T02:10:06.461Z,95092.91
2018-06-15T02:13:10.773Z,95100.22
2018-06-15T02:16:15.086Z,95097.68
2018-06-15T02:19:19.390Z,95105.11
2018-06-15T02:22:23.677Z,95095.91
2018-06-15T02:25:27.954Z,95100.34
2018-06-15T02:28:35.190Z,95101.77
2018-06-15T02:31:39.526Z,95094.55
2018-06-15T02:34:43.787Z,95099.11
2018-06-15T02:37:48.079Z,95096.34
2018-06-15T02:40:52.355Z,95101.00
2018-06-15T02:43:56.700Z,95095.20
2018-06-15T02:47:00.962Z,95096.78
2018-06-15T02:50:05.256Z,95095.43
2018-06-15T02:53:09.561Z,95105.41
2018-06-15T02:56:13.877Z,95105.20
2018-06-15T02:59:18.135Z,95106.31
2018-06-15T03:02:22.406Z,95095.22
2018-06-15T03:05:26.823Z,95093.89
2018-06-15T03:08:31.345Z,95095.98
2018-06-15T03:11:35.918Z,95092.98
2018-06-15T03:14:40.206Z,95087.42
2018-06-15T03:17:44.938Z,95089.19
2018-06-15T03:20:49.289Z,95098.13
2018-06-15T03:23:53.601Z,95100.44
2018-06-15T03:27:19.684Z,95093.55
2018-06-15T03:30:23.964Z,95099.41
2018-06-15T03:33:29.719Z,95092.51
2018-06-15T03:36:37.426Z,95093.32
2018-06-15T03:39:42.298Z,95106.75
2018-06-15T03:42:46.803Z,95097.28
2018-06-15T03:45:51.061Z,95099.17
2018-06-15T03:48:55.443Z,95106.06
2018-06-15T03:51:59.757Z,95097.48
2018-06-15T03:55:04.161Z,95101.13
2018-06-15T03:58:08.453Z,95096.50
2018-06-15T04:01:13.421Z,95089.23
2018-06-15T04:04:17.844Z,95085.98
2018-06-15T04:07:22.200Z,95093.59
2018-06-15T04:10:26.933Z,95091.67
2018-06-15T04:13:31.195Z,95087.44
2018-06-15T04:16:42.885Z,95091.02
2018-06-15T04:19:48.044Z,95096.18
2018-06-15T04:22:53.096Z,95094.13
2018-06-15T04:25:57.445Z,95094.38
2018-06-15T04:29:01.818Z,95095.49
2018-06-15T04:32:06.166Z,95093.37
2018-06-15T04:35:10.602Z,95100.67
2018-06-15T04:38:15.691Z,95099.62
2018-06-15T04:41:20.237Z,95097.83
2018-06-15T04:44:25.670Z,95093.29
2018-06-15T04:47:29.972Z,95092.56
2018-06-15T04:50:34.485Z,95095.45
2018-06-15T04:53:38.838Z,95093.70
2018-06-15T04:56:43.151Z,95083.91
2018-06-15T04:59:47.442Z,95084.41
2018-06-15T05:02:52.097Z,95085.74
2018-06-15T05:05:56.377Z,95080.53
2018-06-15T05:09:00.693Z,95085.08
2018-06-15T05:12:09.998Z,95090.47
2018-06-15T05:15:14.327Z,95091.42
2018-06-15T05:18:19.570Z,95094.91
2018-06-15T05:21:23.962Z,95089.56
2018-06-15T05:24:28.295Z,95092.83
2018-06-15T05:27:32.649Z,95089.03
2018-06-15T05:30:36.921Z,95094.95
2018-06-15T05:33:41.238Z,95089.95
2018-06-15T05:36:45.708Z,95092.37
2018-06-15T05:39:50.095Z,95094.44
2018-06-15T05:42:54.509Z,95092.03
2018-06-15T05:45:58.954Z,95090.70
2018-06-15T05:49:03.350Z,95099.52
2018-06-15T05:52:07.771Z,95103.44
2018-06-15T05:55:12.158Z,95095.13
2018-06-15T05:58:16.616Z,95099.28
2018-06-15T06:01:22.043Z,95103.48
2018-06-15T06:04:26.444Z,95101.20
2018-06-15T06:07:31.054Z,95104.69
2018-06-15T06:10:35.346Z,95094.65
2018-06-15T06:13:39.795Z,95099.28
2018-06-15T06:16:44.331Z,95099.63
2018-06-15T06:19:48.913Z,95099.60
2018-06-15T06:22:53.539Z,95096.61
2018-06-15T06:25:57.935Z,95103.41
2018-06-15T06:29:02.334Z,95102.88
2018-06-15T06:32:06.874Z,95103.54
2018-06-15T06:35:11.735Z,95106.48
2018-06-15T06:38:16.149Z,95113.63
2018-06-15T06:41:21.181Z,95110.26
2018-06-15T06:44:25.574Z,95110.88
2018-06-15T06:47:29.860Z,95112.48
2018-06-15T06:50:34.205Z,95108.74
2018-06-15T06:53:38.875Z,95112.94
2018-06-15T06:56:43.432Z,95110.56
2018-06-15T06:59:47.723Z,95105.90
2018-06-15T07:02:52.985Z,95111.81
2018-06-15T07:05:57.809Z,95103.77
2018-06-15T07:09:02.185Z,95104.53
2018-06-15T07:12:06.830Z,95107.31
2018-06-15T07:15:11.246Z,95110.61
2018-06-15T07:18:16.130Z,95110.36
2018-06-15T07:21:20.645Z,95112.45
2018-06-15T07:24:24.947Z,95108.57
2018-06-15T07:27:29.956Z,95107.78
2018-06-15T07:30:34.267Z,95114.13
2018-06-15T07:33:38.665Z,95109.45
2018-06-15T07:36:43.036Z,95106.14
2018-06-15T07:39:48.147Z,95106.75
2018-06-15T07:42:53.124Z,95110.75
2018-06-15T07:45:57.449Z,95106.88
2018-06-15T07:49:02.006Z,95113.97
2018-06-15T07:52:06.355Z,95114.00
2018-06-15T07:55:10.712Z,95108.83
2018-06-15T07:58:15.210Z,95111.61
2018-06-15T08:01:19.531Z,95111.98
2018-06-15T08:04:23.909Z,95109.59
2018-06-15T08:07:28.250Z,95113.69
2018-06-15T08:10:32.642Z,95108.95
2018-06-15T08:13:37.010Z,95106.06
2018-06-15T08:16:41.303Z,95108.37
2018-06-15T08:19:45.594Z,95108.63
2018-06-15T08:22:49.879Z,95105.73
2018-06-15T08:25:54.805Z,95109.95
2018-06-15T08:28:59.178Z,95100.56
2018-06-15T08:32:04.044Z,95107.54
2018-06-15T08:35:08.415Z,95107.29
2018-06-15T08:38:12.763Z,95108.80
2018-06-15T08:41:17.102Z,95115.81
2018-06-15T08:44:21.400Z,95104.76
2018-06-15T08:47:25.725Z,95105.76
2018-06-15T08:50:30.069Z,95105.67
2018-06-15T08:53:34.958Z,95105.50
2018-06-15T08:56:39.275Z,95099.89
2018-06-15T08:59:44.047Z,95102.11
2018-06-15T09:02:49.435Z,95098.20
2018-06-15T09:05:53.711Z,95097.88
2018-06-15T09:08:58.638Z,95095.02
2018-06-15T09:12:02.962Z,95088.60
2018-06-15T09:15:07.354Z,95091.11
2018-06-15T09:18:12.348Z,95079.97
2018-06-15T09:21:16.597Z,95093.42
2018-06-15T09:24:21.014Z,95091.47
2018-06-15T09:27:25.069Z,95092.08
2018-06-15T09:30:29.494Z,95086.52
2018-06-15T09:33:34.120Z,95082.20
2018-06-15T09:36:38.593Z,95081.00
2018-06-15T09:39:42.950Z,95082.72
2018-06-15T09:42:47.246Z,95081.31
2018-06-15T09:45:52.907Z,95093.61
2018-06-15T09:48:57.280Z,95085.53
2018-06-15T09:52:01.577Z,95087.64
2018-06-15T09:55:05.964Z,95088.50
2018-06-15T09:58:11.003Z,95087.02
2018-06-15T10:01:15.290Z,95086.77
2018-06-15T10:04:19.611Z,95093.95
2018-06-15T10:07:23.882Z,95087.72
2018-06-15T10:10:28.234Z,95090.80
2018-06-15T10:13:32.633Z,95080.05
2018-06-15T10:16:37.163Z,95090.99
2018-06-15T10:19:41.550Z,95087.56
2018-06-15T10:22:52.711Z,95091.03
2018-06-15T10:25:57.313Z,95085.41
2018-06-15T10:29:01.585Z,95083.23
2018-06-15T10:32:05.791Z,95082.22
2018-06-15T10:35:10.063Z,95083.73
2018-06-15T10:38:14.354Z,95087.02
2018-06-15T10:41:18.771Z,95081.67
2018-06-15T10:44:23.471Z,95081.47
2018-06-15T10:47:27.742Z,95083.45
2018-06-15T10:50:32.023Z,95080.23
2018-06-15T10:53:36.637Z,95078.38
2018-06-15T10:56:41.010Z,95081.23
2018-06-15T10:59:45.034Z,95077.59
2018-06-15T11:02:49.314Z,95073.73
2018-06-15T11:05:53.967Z,95070.34
2018-06-15T11:08:58.293Z,95073.33
2018-06-15T11:12:03.065Z,95068.70
2018-06-15T11:15:07.352Z,95064.86
2018-06-15T11:18:19.584Z,95066.98
2018-06-15T11:21:27.587Z,95071.80
2018-06-15T11:24:33.940Z,95070.42
2018-06-15T11:27:38.747Z,95068.70
2018-06-15T11:30:43.120Z,95070.27
2018-06-15T11:33:47.609Z,95065.36
2018-06-15T11:36:51.924Z,95065.14
2018-06-15T11:39:56.381Z,95065.12
2018-06-15T11:43:01.825Z,95068.42
2018-06-15T11:46:06.484Z,95063.53
2018-06-15T11:49:10.855Z,95065.06
2018-06-15T11:52:15.813Z,95067.56
2018-06-15T11:55:20.170Z,95067.59
2018-06-15T11:58:24.448Z,95063.29
2018-06-15T12:01:28.973Z,95068.62
2018-06-15T12:04:34.279Z,95063.70
2018-06-15T12:07:38.622Z,95066.72
2018-06-15T12:10:44.090Z,95063.47
2018-06-15T12:13:54.176Z,95063.14
2018-06-15T12:16:59.882Z,95063.52
2018-06-15T12:20:07.219Z,95051.05
2018-06-15T12:23:14.357Z,95057.30
2018-06-15T12:26:18.665Z,95060.16
2018-06-15T12:29:23.929Z,95059.36
2018-06-15T12:32:29.569Z,95053.53
2018-06-15T12:35:34.233Z,95056.77
2018-06-15T12:38:39.035Z,95062.13
2018-06-15T12:41:43.417Z,95060.20
2018-06-15T12:44:47.811Z,95056.95
2018-06-15T12:47:52.192Z,95049.20
2018-06-15T12:50:56.645Z,95056.84
2018-06-15T12:54:01.599Z,95052.02
2018-06-15T12:57:06.461Z,95050.46
2018-06-15T13:00:11.035Z,95040.83
2018-06-15T13:03:15.376Z,95043.89
2018-06-15T13:06:19.777Z,95050.80
2018-06-15T13:09:24.517Z,95047.56
2018-06-15T13:12:29.369Z,95039.64
2018-06-15T13:15:33.739Z,95047.91
2018-06-15T13:18:38.023Z,95044.95
2018-06-15T13:21:42.132Z,95039.44
2018-06-15T13:24:46.873Z,95036.61
2018-06-15T13:27:51.251Z,95040.86
2018-06-15T13:30:55.710Z,95031.34
2018-06-15T13:34:00.137Z,95035.42
2018-06-15T13:37:05.440Z,95043.67
2018-06-15T13:40:10.212Z,95038.26
2018-06-15T13:43:14.424Z,95034.97
2018-06-15T13:46:27.913Z,95028.08
2018-06-15T13:49:33.863Z,95035.04
2018-06-15T13:52:39.199Z,95035.50
2018-06-15T13:55:43.696Z,95032.30
2018-06-15T13:58:50.235Z,95029.22
2018-06-15T14:01:55.538Z,95028.64
2018-06-15T14:04:59.896Z,95037.63
2018-06-15T14:08:04.709Z,95032.72
2018-06-15T14:11:09.824Z,95029.54
2018-06-15T14:14:14.146Z,95019.03
2018-06-15T14:17:18.614Z,95026.48
2018-06-15T14:20:23.227Z,95028.73
2018-06-15T14:23:28.554Z,95024.19
2018-06-15T14:26:33.165Z,95031.53
2018-06-15T14:29:39.155Z,95018.91
2018-06-15T14:32:44.850Z,95018.59
2018-06-15T14:35:49.387Z,95013.67
2018-06-15T14:38:53.995Z,95007.27
2018-06-15T14:41:58.577Z,95010.87
2018-06-15T14:45:03.132Z,95012.06
2018-06-15T14:48:07.551Z,95009.78
2018-06-15T14:51:11.934Z,95009.69
2018-06-15T14:54:16.951Z,95016.08
2018-06-15T14:57:21.630Z,95013.59
2018-06-15T15:00:25.959Z,95006.73
2018-06-15T15:03:30.436Z,95010.07
2018-06-15T15:06:35.231Z,95002.33
2018-06-15T15:09:39.690Z,95000.13
2018-06-15T15:12:44.167Z,94995.13
2018-06-15T15:15:50.738Z,95002.67
2018-06-15T15:18:56.814Z,94991.85
2018-06-15T15:22:01.303Z,94997.12
2018-06-15T15:25:05.639Z,94997.55
2018-06-15T15:28:10.279Z,94993.59
2018-06-15T15:31:14.625Z,94987.41
2018-06-15T15:34:18.916Z,94990.05
2018-06-15T15:37:24.429Z,94985.20
2018-06-15T15:40:28.785Z,94983.05
2018-06-15T15:43:33.883Z,94987.07
2018-06-15T15:46:38.226Z,94982.70
2018-06-15T15:49:42.534Z,94982.91
2018-06-15T15:52:46.680Z,94983.81
2018-06-15T15:55:51.109Z,94983.13
2018-06-15T15:58:55.672Z,94992.97
2018-06-15T16:02:00.605Z,94985.23
2018-06-15T16:05:05.192Z,94998.00
2018-06-15T16:08:09.631Z,94992.09
2018-06-15T16:11:14.354Z,94989.00
2018-06-15T16:14:19.057Z,94984.71
2018-06-15T16:17:23.574Z,94984.71
2018-06-15T16:20:28.394Z,94984.82
2018-06-15T16:23:34.061Z,94978.59
2018-06-15T16:26:38.710Z,94983.36
2018-06-15T16:29:43.491Z,94987.80
2018-06-15T16:32:48.442Z,94985.59
2018-06-15T16:35:53.097Z,94985.87
2018-06-15T16:38:58.384Z,94983.75
2018-06-15T16:42:02.972Z,94983.38
2018-06-15T16:45:07.530Z,94980.13
2018-06-15T16:48:11.993Z,94979.98
2018-06-15T16:51:16.517Z,94977.08
2018-06-15T16:54:21.990Z,94982.48
2018-06-15T16:57:26.265Z,94980.88
2018-06-15T17:00:34.193Z,94978.01
2018-06-15T17:03:38.737Z,94975.94
2018-06-15T17:06:43.271Z,94978.89
2018-06-15T17:09:47.712Z,94981.70
2018-06-15T17:12:52.182Z,94992.70
2018-06-15T17:15:56.573Z,94984.95
2018-06-15T17:19:01.115Z,94990.19
2018-06-15T17:22:05.225Z,94986.91
2018-06-15T17:25:09.746Z,94988.52
2018-06-15T17:28:14.364Z,94994.31
2018-06-15T17:31:19.027Z,94985.14
2018-06-15T17:34:23.339Z,95000.17
2018-06-15T17:37:27.722Z,94997.10
2018-06-15T17:40:32.462Z,94995.57
2018-06-15T17:43:37.172Z,94997.31
2018-06-15T17:46:41.794Z,95000.03
2018-06-15T17:49:46.273Z,95002.53
2018-06-15T17:52:50.922Z,95003.47
2018-06-15T17:55:55.367Z,95006.58
2018-06-15T17:58:59.943Z,95009.08
2018-06-15T18:02:04.424Z,95010.22
2018-06-15T18:05:08.940Z,95012.34
2018-06-15T18:08:13.351Z,95013.45
2018-06-15T18:11:17.861Z,95012.48
2018-06-15T18:14:22.213Z,95012.08
2018-06-15T18:17:26.750Z,95011.43
2018-06-15T18:20:31.262Z,95011.74
2018-06-15T18:23:36.306Z,95012.48
2018-06-15T18:26:40.663Z,95012.63
2018-06-15T18:29:45.076Z,95014.11
2018-06-15T18:32:49.417Z,95016.91
2018-06-15T18:35:53.973Z,95020.09
2018-06-15T18:38:58.281Z,95012.52
2018-06-15T18:42:02.681Z,95013.57
2018-06-15T18:45:07.344Z,95018.11
2018-06-15T18:48:13.520Z,95019.16
2018-06-15T18:51:18.218Z,95022.14
2018-06-15T18:54:22.776Z,95025.73
2018-06-15T18:57:27.286Z,95026.98
2018-06-15T19:00:32.061Z,95027.45
2018-06-15T19:03:37.365Z,95030.06
2018-06-15T19:06:42.117Z,95030.98
2018-06-15T19:09:47.189Z,95028.29
2018-06-15T19:12:51.641Z,95035.44
2018-06-15T19:15:56.190Z,95032.47
2018-06-15T19:19:00.766Z,95040.22
2018-06-15T19:22:05.401Z,95037.02
2018-06-15T19:25:10.024Z,95035.67
2018-06-15T19:28:14.460Z,95047.48
2018-06-15T19:31:19.268Z,95048.98
2018-06-15T19:34:23.735Z,95055.58
2018-06-15T19:37:28.267Z,95050.19
2018-06-15T19:40:32.757Z,95054.14
2018-06-15T19:43:37.370Z,95056.39
2018-06-15T19:46:41.808Z,95053.11
2018-06-15T19:49:46.523Z,95053.67
2018-06-15T19:52:52.274Z,95061.14
2018-06-15T19:55:57.034Z,95054.20
2018-06-15T19:59:01.403Z,95057.98
2018-06-15T20:02:06.042Z,95057.51
2018-06-15T20:05:10.656Z,95056.25
2018-06-15T20:08:15.082Z,95062.37
2018-06-15T20:11:19.539Z,95063.84
2018-06-15T20:14:23.899Z,95064.83
2018-06-15T20:17:29.252Z,95065.96
2018-06-15T20:20:33.926Z,95073.45
2018-06-15T20:23:38.324Z,95075.58
2018-06-15T20:26:42.666Z,95075.43
2018-06-15T20:29:48.857Z,95080.34
2018-06-15T20:32:53.478Z,95080.53
2018-06-15T20:35:57.987Z,95087.36
2018-06-15T20:39:02.560Z,95084.63
2018-06-15T20:42:07.283Z,95088.59
2018-06-15T20:45:11.732Z,95091.00
2018-06-15T20:48:16.358Z,95094.67
2018-06-15T20:51:20.487Z,95091.77
2018-06-15T20:54:24.938Z,95090.84
2018-06-15T20:57:30.046Z,95093.44
2018-06-15T21:00:34.504Z,95087.44
2018-06-15T21:03:40.726Z,95086.76
2018-06-15T21:06:45.331Z,95087.99
2018-06-15T21:09:49.990Z,95090.59
2018-06-15T21:12:54.566Z,95090.48
2018-06-15T21:16:00.252Z,95089.97
2018-06-15T21:19:05.071Z,95086.49
2018-06-15T21:22:09.870Z,95093.75
2018-06-15T21:25:14.419Z,95090.56
2018-06-15T21:28:19.714Z,95096.27
2018-06-15T21:31:25.451Z,95092.79
2018-06-15T21:34:30.847Z,95089.68
2018-06-15T21:37:45.070Z,95097.16
2018-06-15T21:40:50.967Z,95091.85
2018-06-15T21:43:56.223Z,95096.62
2018-06-15T21:47:03.181Z,95087.66
2018-06-15T21:50:07.902Z,95087.66
2018-06-15T21:53:13.796Z,95082.33
2018-06-15T21:56:18.895Z,95080.33
2018-06-15T21:59:23.349Z,95081.77
2018-06-15T22:02:27.819Z,95093.38
2018-06-15T22:05:33.977Z,95090.84
2018-06-15T22:08:38.313Z,95082.63
2018-06-15T22:11:42.837Z,95082.63
2018-06-15T22:14:47.542Z,95084.51
2018-06-15T22:17:52.052Z,95083.77
2018-06-15T22:20:56.453Z,95084.57
2018-06-15T22:24:00.850Z,95091.88
2018-06-15T22:27:05.880Z,95095.66
2018-06-15T22:30:10.186Z,95105.65
2018-06-15T22:33:14.446Z,95104.99
2018-06-15T22:36:18.977Z,95090.69
2018-06-15T22:39:23.245Z,95095.56
2018-06-15T22:42:27.503Z,95098.90
2018-06-15T22:45:32.775Z,95096.34
2018-06-15T22:48:37.154Z,95100.57
2018-06-15T22:51:43.053Z,95102.09
2018-06-15T22:54:47.964Z,95091.91
2018-06-15T22:57:52.285Z,95097.69
2018-06-15T23:00:56.606Z,95091.69
2018-06-15T23:04:01.629Z,95091.14
2018-06-15T23:07:05.998Z,95083.05
2018-06-15T23:10:10.338Z,95084.16
2018-06-15T23:13:15.084Z,95079.27
2018-06-15T23:16:20.121Z,95080.50
2018-06-15T23:19:24.388Z,95088.68
2018-06-15T23:22:28.653Z,95082.80
2018-06-15T23:25:33.823Z,95087.22
2018-06-15T23:28:38.103Z,95081.45
2018-06-15T23:31:42.984Z,95085.53
2018-06-15T23:34:47.865Z,95077.00
2018-06-15T23:37:52.158Z,95077.45
2018-06-15T23:40:56.438Z,95074.02
2018-06-15T23:44:01.508Z,95079.33
2018-06-15T23:47:05.843Z,95080.77
2018-06-15T23:50:10.639Z,95084.06
2018-06-15T23:53:15.054Z,95077.73
2018-06-15T23:56:19.711Z,95079.10
2018-06-15T23:59:24.682Z,95074.43
